METAR Data

Data at: 0910 UTC 23 Jan 2019

METAR for:KPHX (Phoenix/Sky Harbor, AZ, US)
Text:KPHX 230851Z 27004KT 10SM CLR 09/M07 A3028 RMK AO2 SLP249 T00941072 53012
Temperature: 9.4°C ( 49°F)
Dewpoint: -7.2°C ( 19°F) [RH = 30%]
Pressure (altimeter):30.28 inches Hg (1025.5 mb) [Sea level pressure: 1024.9 mb]
Winds:from the W (270 degrees) at 5 MPH (4 knots; 2.1 m/s)
Visibility:10 or more sm (16+ km)
Ceiling:at least 12,000 feet AGL
Clouds:sky clear below 12,000 feet AGL